North Lewisburg, Ohio
Current Conditions -  °F | °C
As of 12:53 PM on Thursday 23 Oct 2014 (Local Time) from KMRT Reporting Station
Scattered Clouds Scattered Clouds  
Wind Chill: 53°   Ceiling: Unl
Heat Index: 53°   Visibility: 10mi
Dew Point: 40°   Wind: 3mph
Humidity: 62%   Direction: 30°NNE
Pressure: 30.23"   Gusts: NA
Location:  40.22°N, 83.56°W
Report Text: KMRT 231653Z AUTO 03003KT 10SM SCT020 12/05 A3023 RMK AO2 T01170046
Loading
Personal Weather Stations






























Interactive Weather Map
Tropical Storm Tracking
New forecast layout! Learn more

10-Day Weather Forecast

Advertisements
Track Severe Weather on mobile